Time;durP1;ratioP1;P1;durP2;ratioP2;P2;SDS_P1;SDS_P2;PMS_P1;PMS_P2;Temp;Humidity;BMP_temperature;BMP_pressure;BME280_temperature;BME280_humidity;BME280_pressure;Samples;Min_cycle;Max_cycle;Signal;HPM_P1;HPM_P2
2022/07/12 00:00:00;;;;;;;6.60;4.07;;;;;;;;;;5078660;28;20448;-54
2022/07/12 00:02:26;;;;;;;4.13;3.40;;;;;;;;;;5073391;28;20186;-50
2022/07/12 00:04:52;;;;;;;4.20;3.50;;;;;;;;;;5076301;28;20798;-51
2022/07/12 00:07:18;;;;;;;4.07;3.67;;;;;;;;;;5073841;28;20186;-52
2022/07/12 00:09:54;;;;;;;4.10;3.40;;;;;;;;;;5079332;28;20973;-51
2022/07/12 00:13:04;;;;;;;4.80;4.07;;;;;;;;;;5073166;28;20776;-51
2022/07/12 00:15:31;;;;;;;4.47;3.50;;;;;;;;;;5073396;28;20432;-51
2022/07/12 00:17:57;;;;;;;4.60;3.90;;;;;;;;;;5080539;28;20798;-51
2022/07/12 00:20:23;;;;;;;4.70;3.67;;;;;;;;;;5061810;28;20440;-51
2022/07/12 00:22:49;;;;;;;5.37;3.33;;;;;;;;;;5081197;28;20438;-51
2022/07/12 00:25:15;;;;;;;4.13;3.70;;;;;;;;;;5059692;28;20455;-50
2022/07/12 00:27:41;;;;;;;4.13;3.73;;;;;;;;;;5075072;28;20463;-52
2022/07/12 00:30:07;;;;;;;6.60;3.50;;;;;;;;;;5050096;28;20567;-50
2022/07/12 00:32:36;;;;;;;4.30;3.90;;;;;;;;;;5076982;28;20924;-51
2022/07/12 00:35:02;;;;;;;5.50;4.10;;;;;;;;;;5047741;28;20866;-51
2022/07/12 00:37:42;;;;;;;10.40;5.73;;;;;;;;;;5079326;28;20461;-52
2022/07/12 00:40:10;;;;;;;5.87;3.87;;;;;;;;;;5067319;28;20444;-50
2022/07/12 00:42:42;;;;;;;4.57;4.07;;;;;;;;;;5076355;28;20429;-52
2022/07/12 00:45:15;;;;;;;4.03;3.63;;;;;;;;;;5067680;28;20440;-52
2022/07/12 00:47:50;;;;;;;4.30;3.70;;;;;;;;;;5071527;28;20437;-52
2022/07/12 00:50:34;;;;;;;4.70;3.97;;;;;;;;;;5069451;28;20498;-52
2022/07/12 00:53:33;;;;;;;8.37;4.23;;;;;;;;;;5071412;28;20451;-53
2022/07/12 00:56:07;;;;;;;5.10;3.70;;;;;;;;;;5067505;27;20487;-53
2022/07/12 00:58:45;;;;;;;4.10;3.70;;;;;;;;;;5080624;28;20951;-51
2022/07/12 01:01:14;;;;;;;4.20;3.43;;;;;;;;;;5079054;28;20487;-51
2022/07/12 01:03:43;;;;;;;4.20;3.30;;;;;;;;;;5059983;28;20440;-52
2022/07/12 01:06:09;;;;;;;5.20;3.83;;;;;;;;;;5079953;28;20436;-51
2022/07/12 01:08:46;;;;;;;4.53;3.90;;;;;;;;;;5065377;28;21105;-52
2022/07/12 01:11:13;;;;;;;4.43;3.43;;;;;;;;;;5078067;28;20441;-51
2022/07/12 01:13:42;;;;;;;4.00;3.30;;;;;;;;;;5077767;28;20484;-50
2022/07/12 01:16:09;;;;;;;3.83;3.50;;;;;;;;;;5083647;28;20649;-49
2022/07/12 01:19:28;;;;;;;6.10;3.80;;;;;;;;;;5076083;28;21377;-52
2022/07/12 01:22:00;;;;;;;5.27;3.93;;;;;;;;;;5054378;28;20444;-51
2022/07/12 01:24:34;;;;;;;3.53;3.13;;;;;;;;;;5058482;28;20524;-51
2022/07/12 01:27:09;;;;;;;5.10;4.03;;;;;;;;;;5076832;28;20433;-51
2022/07/12 01:29:35;;;;;;;4.10;3.70;;;;;;;;;;5072822;28;20482;-51
2022/07/12 01:32:26;;;;;;;3.83;3.53;;;;;;;;;;5070649;28;20771;-51
2022/07/12 01:34:53;;;;;;;5.70;3.50;;;;;;;;;;5065324;28;20436;-51
2022/07/12 01:37:21;;;;;;;3.93;3.53;;;;;;;;;;5074104;28;20509;-52
2022/07/12 01:40:02;;;;;;;3.67;3.30;;;;;;;;;;5060603;28;20550;-52
2022/07/12 01:42:30;;;;;;;6.77;3.40;;;;;;;;;;5069817;28;20603;-52
2022/07/12 01:44:56;;;;;;;5.00;3.90;;;;;;;;;;5082553;28;20506;-54
2022/07/12 01:47:24;;;;;;;3.50;3.20;;;;;;;;;;5075992;28;20918;-53
2022/07/12 01:49:50;;;;;;;3.73;3.33;;;;;;;;;;5062429;28;20803;-53
2022/07/12 01:52:16;;;;;;;4.37;3.97;;;;;;;;;;5074743;28;20437;-53
2022/07/12 01:54:42;;;;;;;4.23;3.63;;;;;;;;;;5043778;28;20452;-50
2022/07/12 01:57:12;;;;;;;5.13;4.17;;;;;;;;;;5054071;28;20440;-52
2022/07/12 01:59:49;;;;;;;4.43;4.00;;;;;;;;;;5082187;28;20510;-52
2022/07/12 02:02:18;;;;;;;4.47;3.13;;;;;;;;;;5069236;28;20475;-50
2022/07/12 02:04:44;;;;;;;3.80;3.27;;;;;;;;;;5078196;28;20444;-52
2022/07/12 02:07:10;;;;;;;4.70;3.07;;;;;;;;;;5037015;28;20517;-55
2022/07/12 02:09:48;;;;;;;3.20;2.80;;;;;;;;;;5077116;28;20641;-50
2022/07/12 02:12:17;;;;;;;6.33;3.90;;;;;;;;;;5060193;28;20436;-53
2022/07/12 02:14:49;;;;;;;3.53;3.20;;;;;;;;;;5081066;28;20851;-53
2022/07/12 02:17:18;;;;;;;3.70;3.10;;;;;;;;;;5053154;28;20501;-51
2022/07/12 02:19:44;;;;;;;4.20;3.67;;;;;;;;;;5077533;28;20456;-51
2022/07/12 02:22:17;;;;;;;4.20;3.27;;;;;;;;;;5074255;28;20928;-50
2022/07/12 02:24:43;;;;;;;3.40;2.87;;;;;;;;;;5091474;28;20459;-51
2022/07/12 02:27:13;;;;;;;4.50;2.93;;;;;;;;;;5048755;28;20441;-50
2022/07/12 02:29:44;;;;;;;3.87;3.23;;;;;;;;;;5079899;28;20468;-52
2022/07/12 02:32:15;;;;;;;3.47;2.90;;;;;;;;;;5073301;28;20440;-51
2022/07/12 02:34:44;;;;;;;3.87;3.40;;;;;;;;;;5077433;28;20432;-50
2022/07/12 02:37:10;;;;;;;3.33;2.73;;;;;;;;;;5061359;28;20521;-50
2022/07/12 02:39:37;;;;;;;4.70;3.27;;;;;;;;;;5077983;28;20510;-53
2022/07/12 02:42:03;;;;;;;5.40;2.87;;;;;;;;;;5052641;28;20452;-51
2022/07/12 02:44:38;;;;;;;3.63;3.30;;;;;;;;;;5075425;28;20533;-50
2022/07/12 02:47:05;;;;;;;4.00;3.23;;;;;;;;;;5050189;28;20530;-50
2022/07/12 02:49:37;;;;;;;5.77;3.30;;;;;;;;;;5076361;28;20626;-51
2022/07/12 02:52:07;;;;;;;4.37;3.00;;;;;;;;;;5069229;28;20454;-50
2022/07/12 02:54:33;;;;;;;3.23;2.60;;;;;;;;;;5076609;28;20442;-52
2022/07/12 02:56:59;;;;;;;3.70;3.00;;;;;;;;;;5069833;28;20432;-51
2022/07/12 02:59:25;;;;;;;2.93;2.50;;;;;;;;;;5077319;28;21271;-50
2022/07/12 03:01:52;;;;;;;3.50;2.90;;;;;;;;;;5053879;28;20451;-51
2022/07/12 03:04:19;;;;;;;3.90;2.63;;;;;;;;;;5076136;28;20453;-50
2022/07/12 03:06:44;;;;;;;4.10;3.07;;;;;;;;;;5052353;28;20490;-53
2022/07/12 03:09:21;;;;;;;3.93;2.83;;;;;;;;;;5076571;28;20920;-52
2022/07/12 03:11:52;;;;;;;5.50;2.57;;;;;;;;;;5070793;28;20293;-52
2022/07/12 03:14:22;;;;;;;4.43;2.87;;;;;;;;;;5074350;28;20508;-53
2022/07/12 03:16:51;;;;;;;4.13;2.73;;;;;;;;;;5065778;28;20432;-52
2022/07/12 03:19:17;;;;;;;3.53;3.10;;;;;;;;;;5076472;28;20961;-52
2022/07/12 03:21:49;;;;;;;3.90;3.00;;;;;;;;;;5044398;28;20448;-56
2022/07/12 03:24:22;;;;;;;3.37;2.87;;;;;;;;;;5070413;28;20452;-50
2022/07/12 03:26:48;;;;;;;3.70;2.83;;;;;;;;;;5056375;28;20444;-50
2022/07/12 03:29:15;;;;;;;3.60;3.00;;;;;;;;;;5075851;28;20486;-51
2022/07/12 03:31:41;;;;;;;4.77;3.20;;;;;;;;;;5049729;28;20437;-51
2022/07/12 03:34:07;;;;;;;3.97;2.80;;;;;;;;;;5077690;28;20433;-52
2022/07/12 03:36:33;;;;;;;6.33;3.40;;;;;;;;;;5036747;28;20452;-51
2022/07/12 03:38:59;;;;;;;3.50;3.20;;;;;;;;;;5077450;28;20568;-52
2022/07/12 03:41:45;;;;;;;3.87;2.83;;;;;;;;;;5071842;28;20451;-53
2022/07/12 03:44:14;;;;;;;3.50;3.00;;;;;;;;;;5077233;28;20614;-52
2022/07/12 03:46:40;;;;;;;4.10;2.97;;;;;;;;;;5076750;28;20502;-53
2022/07/12 03:49:06;;;;;;;5.63;2.77;;;;;;;;;;5074300;28;20484;-52
2022/07/12 03:51:32;;;;;;;3.00;2.70;;;;;;;;;;5046869;28;20990;-51
2022/07/12 03:53:58;;;;;;;4.00;3.17;;;;;;;;;;5071663;28;20429;-51
2022/07/12 03:59:09;;;;;;;4.13;2.90;;;;;;;;;;5047214;28;20624;-51
2022/07/12 04:01:44;;;;;;;3.90;3.13;;;;;;;;;;5077803;28;20941;-51
2022/07/12 04:04:12;;;;;;;3.63;2.47;;;;;;;;;;5056435;28;21062;-51
2022/07/12 04:06:38;;;;;;;3.70;2.80;;;;;;;;;;5073880;28;20444;-51
2022/07/12 04:09:05;;;;;;;5.17;3.27;;;;;;;;;;5065349;28;20494;-52
2022/07/12 04:11:31;;;;;;;3.73;2.63;;;;;;;;;;5072922;28;20440;-52
2022/07/12 04:14:32;;;;;;;;;;;;;;;;;;;;;
2022/07/12 04:16:59;;;;;;;8.13;3.03;;;;;;;;;;5074910;28;20758;-50
2022/07/12 04:19:27;;;;;;;3.07;2.77;;;;;;;;;;5073180;28;20482;-53
2022/07/12 04:21:55;;;;;;;4.47;3.20;;;;;;;;;;5079874;28;20945;-52
2022/07/12 04:24:21;;;;;;;3.00;2.70;;;;;;;;;;5047868;28;20442;-52
2022/07/12 04:26:51;;;;;;;5.93;2.47;;;;;;;;;;5075215;28;20446;-52
2022/07/12 04:29:19;;;;;;;3.83;2.20;;;;;;;;;;5060097;28;20509;-54
2022/07/12 04:31:49;;;;;;;2.87;2.57;;;;;;;;;;5075345;28;20490;-51
2022/07/12 04:34:19;;;;;;;4.00;2.33;;;;;;;;;;5066903;28;20445;-50
2022/07/12 04:36:45;;;;;;;3.47;2.93;;;;;;;;;;5066824;28;20441;-51
2022/07/12 04:39:29;;;;;;;2.70;1.80;;;;;;;;;;5061385;28;21085;-51
2022/07/12 04:42:02;;;;;;;3.43;2.00;;;;;;;;;;5063561;28;20449;-52
2022/07/12 04:44:57;;;;;;;4.70;3.30;;;;;;;;;;5074958;28;20925;-52
2022/07/12 04:47:26;;;;;;;4.03;2.80;;;;;;;;;;5072844;28;20493;-52
2022/07/12 04:50:08;;;;;;;4.27;3.13;;;;;;;;;;5067634;28;22446;-53
2022/07/12 04:52:35;;;;;;;2.77;2.40;;;;;;;;;;5076171;28;20882;-51
2022/07/12 04:55:01;;;;;;;2.20;1.93;;;;;;;;;;5047040;28;20479;-51
2022/07/12 04:57:29;;;;;;;2.77;2.57;;;;;;;;;;5074468;28;22709;-52
2022/07/12 04:59:55;;;;;;;3.30;2.77;;;;;;;;;;5072024;28;20444;-51
2022/07/12 05:02:26;;;;;;;3.23;2.57;;;;;;;;;;5070096;28;20490;-52
2022/07/12 05:05:19;;;;;;;4.40;2.90;;;;;;;;;;5073866;28;20536;-52
2022/07/12 05:07:57;;;;;;;6.80;3.10;;;;;;;;;;5070772;28;21136;-53
2022/07/12 05:13:29;;;;;;;3.80;2.73;;;;;;;;;;5048199;28;20451;-53
2022/07/12 05:15:59;;;;;;;4.13;2.63;;;;;;;;;;5044344;28;20530;-52
2022/07/12 05:18:30;;;;;;;4.13;2.50;;;;;;;;;;5080870;28;20429;-53
2022/07/12 05:21:03;;;;;;;3.50;2.87;;;;;;;;;;5077786;28;20445;-53
2022/07/12 05:23:31;;;;;;;3.33;2.80;;;;;;;;;;5083273;28;20981;-53
2022/07/12 05:26:28;;;;;;;3.10;2.30;;;;;;;;;;5082100;28;20684;-51
2022/07/12 05:29:03;;;;;;;3.00;2.33;;;;;;;;;;5084019;28;20478;-54
2022/07/12 05:31:45;;;;;;;3.67;3.00;;;;;;;;;;5071708;28;20818;-53
2022/07/12 05:34:18;;;;;;;5.60;3.00;;;;;;;;;;5088779;28;20451;-52
2022/07/12 05:36:44;;;;;;;3.50;3.20;;;;;;;;;;5075883;28;20428;-52
2022/07/12 05:39:14;;;;;;;5.27;3.30;;;;;;;;;;5079057;28;20452;-51
2022/07/12 05:42:13;;;;;;;3.97;3.57;;;;;;;;;;5089867;28;20459;-53
2022/07/12 05:44:45;;;;;;;3.67;3.13;;;;;;;;;;5078621;28;20467;-53
2022/07/12 05:47:13;;;;;;;4.07;3.07;;;;;;;;;;5062337;28;20436;-52
2022/07/12 05:49:40;;;;;;;3.67;3.37;;;;;;;;;;5085882;28;20486;-52
2022/07/12 05:54:52;;;;;;;4.73;3.63;;;;;;;;;;5083924;28;20464;-52
2022/07/12 05:57:19;;;;;;;4.10;3.17;;;;;;;;;;5085868;28;20467;-53
2022/07/12 05:59:48;;;;;;;3.77;2.87;;;;;;;;;;5080220;28;21694;-52
2022/07/12 06:02:16;;;;;;;7.13;3.07;;;;;;;;;;5058151;28;20432;-52
2022/07/12 06:04:43;;;;;;;3.20;2.90;;;;;;;;;;5086420;28;20434;-53
2022/07/12 06:07:11;;;;;;;2.93;2.23;;;;;;;;;;5080689;28;20531;-54
2022/07/12 06:09:40;;;;;;;2.67;2.40;;;;;;;;;;5086091;28;20474;-51
2022/07/12 06:12:07;;;;;;;3.03;2.37;;;;;;;;;;5060155;28;20531;-53
2022/07/12 06:14:33;;;;;;;4.93;3.27;;;;;;;;;;5090760;28;20492;-54
2022/07/12 06:16:59;;;;;;;3.00;2.67;;;;;;;;;;5065014;28;20429;-53
2022/07/12 06:19:26;;;;;;;4.20;2.80;;;;;;;;;;5093589;28;20437;-52
2022/07/12 06:22:00;;;;;;;3.30;2.30;;;;;;;;;;5080362;28;20436;-53
2022/07/12 06:24:26;;;;;;;2.97;1.83;;;;;;;;;;5082387;28;20440;-53
2022/07/12 06:26:52;;;;;;;2.20;1.70;;;;;;;;;;5087327;28;20429;-52
2022/07/12 06:29:21;;;;;;;3.87;2.10;;;;;;;;;;5076869;28;20473;-53
2022/07/12 06:31:47;;;;;;;2.73;1.73;;;;;;;;;;5087622;28;20657;-54
2022/07/12 06:34:17;;;;;;;2.30;1.90;;;;;;;;;;5089972;28;20523;-53
2022/07/12 06:36:50;;;;;;;3.40;1.90;;;;;;;;;;5064472;28;23294;-53
2022/07/12 06:39:19;;;;;;;3.30;2.30;;;;;;;;;;5087489;28;20448;-57
2022/07/12 06:42:03;;;;;;;1.70;1.50;;;;;;;;;;5081025;27;20840;-52
2022/07/12 06:44:31;;;;;;;2.37;1.90;;;;;;;;;;5079335;28;20440;-50
2022/07/12 06:47:10;;;;;;;3.10;1.40;;;;;;;;;;5066618;28;20445;-52
2022/07/12 06:49:37;;;;;;;4.20;1.77;;;;;;;;;;5083192;28;20651;-53
2022/07/12 06:52:05;;;;;;;1.90;1.70;;;;;;;;;;5069046;28;20602;-52
2022/07/12 06:54:36;;;;;;;2.00;1.60;;;;;;;;;;5082887;28;20454;-53
2022/07/12 06:57:02;;;;;;;3.13;1.63;;;;;;;;;;5058620;28;20515;-51
2022/07/12 06:59:28;;;;;;;2.33;2.13;;;;;;;;;;5084182;28;20833;-53
2022/07/12 07:01:57;;;;;;;1.80;1.63;;;;;;;;;;5082019;28;20432;-52
2022/07/12 07:04:23;;;;;;;2.57;1.70;;;;;;;;;;5086281;28;20943;-53
2022/07/12 07:06:50;;;;;;;1.90;1.50;;;;;;;;;;5057804;28;20431;-51
2022/07/12 07:09:16;;;;;;;4.80;1.60;;;;;;;;;;5083788;28;20991;-52
2022/07/12 07:11:42;;;;;;;7.43;1.60;;;;;;;;;;5075663;28;20437;-50
2022/07/12 07:14:18;;;;;;;2.23;1.30;;;;;;;;;;5080840;28;20440;-51
2022/07/12 07:16:45;;;;;;;1.90;1.33;;;;;;;;;;5063243;28;21372;-53
2022/07/12 07:19:13;;;;;;;2.60;1.67;;;;;;;;;;5077401;28;20448;-51
2022/07/12 07:22:04;;;;;;;1.80;1.40;;;;;;;;;;5075946;28;20461;-52
2022/07/12 07:24:35;;;;;;;1.90;1.30;;;;;;;;;;5083676;28;20472;-50
2022/07/12 07:27:01;;;;;;;1.90;1.57;;;;;;;;;;5063828;28;22101;-52
2022/07/12 07:32:32;;;;;;;1.60;1.00;;;;;;;;;;5068026;28;20505;-51
2022/07/12 07:34:58;;;;;;;2.37;1.40;;;;;;;;;;5091873;27;20448;-55
2022/07/12 07:37:24;;;;;;;1.60;1.30;;;;;;;;;;5068137;28;20421;-52
2022/07/12 07:40:07;;;;;;;2.33;1.40;;;;;;;;;;5078332;28;20480;-53
2022/07/12 07:42:34;;;;;;;1.77;1.30;;;;;;;;;;5055464;28;20518;-52
2022/07/12 07:45:03;;;;;;;1.77;1.07;;;;;;;;;;5069834;28;20431;-52
2022/07/12 07:47:29;;;;;;;3.60;1.00;;;;;;;;;;5079013;27;20452;-52
2022/07/12 07:50:08;;;;;;;;;;;;;;;;;;;;;
2022/07/12 07:52:34;;;;;;;1.93;1.20;;;;;;;;;;5083627;28;20433;-53
2022/07/12 07:55:03;;;;;;;1.77;1.17;;;;;;;;;;5077459;28;20552;-54
2022/07/12 07:57:38;;;;;;;1.40;0.90;;;;;;;;;;5057884;28;20436;-57
2022/07/12 08:00:08;;;;;;;1.70;0.97;;;;;;;;;;5079996;28;20441;-52
2022/07/12 08:02:37;;;;;;;1.53;1.33;;;;;;;;;;5080397;28;20475;-51
2022/07/12 08:05:03;;;;;;;1.50;0.90;;;;;;;;;;5078907;28;20984;-52
2022/07/12 08:07:32;;;;;;;1.20;0.63;;;;;;;;;;5073482;28;20662;-52
2022/07/12 08:10:18;;;;;;;2.00;0.80;;;;;;;;;;5081545;28;21098;-51
2022/07/12 08:12:44;;;;;;;1.40;0.80;;;;;;;;;;5066878;28;20899;-52
2022/07/12 08:15:10;;;;;;;1.40;0.77;;;;;;;;;;5071012;28;20437;-51
2022/07/12 08:17:37;;;;;;;1.30;0.80;;;;;;;;;;5061141;28;20491;-51
2022/07/12 08:20:03;;;;;;;1.20;0.70;;;;;;;;;;5095084;28;20417;-52
2022/07/12 08:22:51;;;;;;;1.67;0.87;;;;;;;;;;5062842;28;20779;-53
2022/07/12 08:25:17;;;;;;;1.57;1.03;;;;;;;;;;5070112;28;22423;-51
2022/07/12 08:27:43;;;;;;;1.20;0.80;;;;;;;;;;5071537;28;20929;-51
2022/07/12 08:30:16;;;;;;;2.20;1.00;;;;;;;;;;5074564;28;20875;-52
2022/07/12 08:32:45;;;;;;;1.67;0.97;;;;;;;;;;5068756;28;20436;-55
2022/07/12 08:35:11;;;;;;;1.60;1.00;;;;;;;;;;5080966;28;20436;-52
2022/07/12 08:37:37;;;;;;;1.60;1.03;;;;;;;;;;5081420;28;20432;-51
2022/07/12 08:40:05;;;;;;;2.23;1.40;;;;;;;;;;5082698;28;20531;-53
2022/07/12 08:42:33;;;;;;;1.57;1.00;;;;;;;;;;5058989;28;20779;-54
2022/07/12 08:44:59;;;;;;;1.60;1.03;;;;;;;;;;5085584;28;20516;-52
2022/07/12 08:47:25;;;;;;;1.80;1.10;;;;;;;;;;5056529;28;20455;-53
2022/07/12 08:50:13;;;;;;;3.43;1.20;;;;;;;;;;5081431;28;20486;-51
2022/07/12 08:52:50;;;;;;;1.60;1.40;;;;;;;;;;5076476;28;20944;-53
2022/07/12 08:55:35;;;;;;;2.73;1.23;;;;;;;;;;5075891;28;20433;-54
2022/07/12 08:58:14;;;;;;;1.90;1.53;;;;;;;;;;5075968;28;20571;-53
2022/07/12 09:00:43;;;;;;;2.70;1.27;;;;;;;;;;5071723;28;20454;-51
2022/07/12 09:03:12;;;;;;;2.77;1.30;;;;;;;;;;5083237;28;20485;-49
2022/07/12 09:06:07;;;;;;;2.07;1.47;;;;;;;;;;5084760;28;20438;-52
2022/07/12 09:08:39;;;;;;;2.17;1.20;;;;;;;;;;5074531;28;20447;-51
2022/07/12 09:14:06;;;;;;;2.33;1.30;;;;;;;;;;5073534;28;20444;-52
2022/07/12 09:17:13;;;;;;;2.63;1.70;;;;;;;;;;5085620;27;20445;-54
2022/07/12 09:19:42;;;;;;;1.80;1.00;;;;;;;;;;5019209;28;20488;-52
2022/07/12 09:22:16;;;;;;;5.33;1.33;;;;;;;;;;5039114;28;20462;-52
2022/07/12 09:24:43;;;;;;;2.40;1.47;;;;;;;;;;5054619;28;20436;-51
2022/07/12 09:27:09;;;;;;;2.37;1.17;;;;;;;;;;5075567;28;20432;-52
2022/07/12 09:29:59;;;;;;;2.30;1.20;;;;;;;;;;5059792;28;20487;-52
2022/07/12 09:38:23;;;;;;;2.10;1.10;;;;;;;;;;5062523;28;20453;-52
2022/07/12 09:40:50;;;;;;;1.50;0.90;;;;;;;;;;5085096;28;20433;-53
2022/07/12 09:43:17;;;;;;;1.90;1.10;;;;;;;;;;5058497;28;20443;-52
2022/07/12 09:45:44;;;;;;;1.73;0.90;;;;;;;;;;5087728;28;20427;-52
2022/07/12 09:48:13;;;;;;;1.50;0.90;;;;;;;;;;5049582;28;20460;-54
2022/07/12 09:50:48;;;;;;;1.70;1.30;;;;;;;;;;5089226;28;20994;-52
2022/07/12 09:53:53;;;;;;;;;;;;;;;;;;;;;
2022/07/12 09:56:20;;;;;;;3.87;1.07;;;;;;;;;;5068811;28;20450;-52
2022/07/12 09:58:56;;;;;;;1.57;1.10;;;;;;;;;;5068480;28;20489;-52
2022/07/12 10:01:28;;;;;;;1.93;1.50;;;;;;;;;;5089438;27;20444;-51
2022/07/12 10:03:55;;;;;;;2.07;0.97;;;;;;;;;;5077519;28;20434;-51
2022/07/12 10:06:25;;;;;;;1.83;1.10;;;;;;;;;;5108406;27;21008;-52
2022/07/12 10:08:51;;;;;;;2.33;1.00;;;;;;;;;;5088717;28;20795;-52
2022/07/12 10:11:17;;;;;;;1.50;1.00;;;;;;;;;;5090081;28;20481;-51
2022/07/12 10:13:43;;;;;;;1.70;1.07;;;;;;;;;;5059749;28;20439;-53
2022/07/12 10:16:09;;;;;;;1.60;1.00;;;;;;;;;;5090139;28;20428;-51
2022/07/12 10:18:35;;;;;;;3.10;1.20;;;;;;;;;;5074975;28;20413;-53
2022/07/12 10:21:01;;;;;;;1.73;0.83;;;;;;;;;;5089210;28;20449;-53
2022/07/12 10:23:30;;;;;;;6.70;1.23;;;;;;;;;;5067721;28;20838;-53
2022/07/12 10:25:57;;;;;;;1.70;1.07;;;;;;;;;;5081002;28;20528;-51
2022/07/12 10:28:23;;;;;;;1.67;1.00;;;;;;;;;;5060623;28;20455;-54
2022/07/12 10:30:49;;;;;;;2.93;1.00;;;;;;;;;;5082563;28;20565;-53
2022/07/12 10:33:19;;;;;;;1.80;1.00;;;;;;;;;;5079016;28;20428;-53
2022/07/12 10:35:58;;;;;;;2.03;0.97;;;;;;;;;;5085780;28;20558;-50
2022/07/12 10:38:25;;;;;;;3.57;1.17;;;;;;;;;;5064109;28;20431;-51
2022/07/12 10:41:03;;;;;;;1.60;0.83;;;;;;;;;;5087344;28;20433;-51
2022/07/12 10:46:18;;;;;;;2.10;0.90;;;;;;;;;;5078692;28;20844;-51
2022/07/12 10:48:45;;;;;;;1.60;1.00;;;;;;;;;;5048538;28;20537;-52
2022/07/12 10:51:19;;;;;;;4.03;1.10;;;;;;;;;;5096376;27;20451;-52
2022/07/12 10:53:48;;;;;;;2.93;0.70;;;;;;;;;;5072507;28;20431;-53
2022/07/12 10:56:22;;;;;;;1.40;0.83;;;;;;;;;;5080687;28;20451;-52
2022/07/12 10:58:55;;;;;;;3.00;1.67;;;;;;;;;;5063381;28;21028;-51
2022/07/12 11:01:22;;;;;;;3.47;1.00;;;;;;;;;;5106948;27;20878;-50
2022/07/12 11:04:14;;;;;;;2.20;1.63;;;;;;;;;;5067569;28;20800;-53
2022/07/12 11:06:41;;;;;;;1.83;0.90;;;;;;;;;;5056906;28;20449;-52
2022/07/12 11:09:08;;;;;;;2.17;0.90;;;;;;;;;;5085809;28;20476;-53
2022/07/12 11:11:45;;;;;;;1.90;0.90;;;;;;;;;;5062885;28;20722;-52
2022/07/12 11:14:23;;;;;;;2.23;1.00;;;;;;;;;;5076868;28;20535;-52
2022/07/12 11:16:59;;;;;;;1.40;0.83;;;;;;;;;;5077310;28;20440;-50
2022/07/12 11:19:34;;;;;;;1.70;0.90;;;;;;;;;;5105389;27;20440;-51
2022/07/12 11:22:02;;;;;;;1.90;0.80;;;;;;;;;;5050591;28;20566;-52
2022/07/12 11:24:28;;;;;;;1.70;0.90;;;;;;;;;;5082652;28;20444;-52
2022/07/12 11:26:54;;;;;;;1.93;0.90;;;;;;;;;;5062686;28;20434;-57
2022/07/12 11:29:21;;;;;;;3.20;1.00;;;;;;;;;;5082551;28;20495;-51
2022/07/12 11:31:47;;;;;;;2.13;0.70;;;;;;;;;;5068313;28;21468;-51
2022/07/12 11:34:20;;;;;;;1.70;1.00;;;;;;;;;;5085160;28;20552;-53
2022/07/12 11:36:46;;;;;;;2.00;1.10;;;;;;;;;;5076506;28;20448;-52
2022/07/12 11:39:24;;;;;;;;;;;;;;;;;;;;;
2022/07/12 11:41:57;;;;;;;4.30;1.57;;;;;;;;;;5084156;28;20477;-53
2022/07/12 11:44:42;;;;;;;1.57;0.80;;;;;;;;;;5082084;28;20888;-52
2022/07/12 11:47:08;;;;;;;1.50;0.80;;;;;;;;;;5059183;28;20530;-53
2022/07/12 11:49:34;;;;;;;1.60;0.90;;;;;;;;;;5079526;28;20468;-52
2022/07/12 11:52:33;;;;;;;1.50;0.97;;;;;;;;;;5045538;28;21112;-54
2022/07/12 11:55:09;;;;;;;1.50;0.80;;;;;;;;;;5047696;28;20589;-51
2022/07/12 11:57:35;;;;;;;2.40;1.10;;;;;;;;;;5075448;28;20433;-51
2022/07/12 12:00:23;;;;;;;1.60;0.90;;;;;;;;;;5080686;27;21833;-51
2022/07/12 12:02:51;;;;;;;2.63;1.10;;;;;;;;;;5066618;28;20531;-52
2022/07/12 12:05:17;;;;;;;2.00;0.90;;;;;;;;;;5047671;28;20455;-51
2022/07/12 12:07:45;;;;;;;1.77;0.97;;;;;;;;;;5073957;28;20610;-53
2022/07/12 12:10:20;;;;;;;3.83;0.73;;;;;;;;;;5069028;28;20851;-51
2022/07/12 12:12:47;;;;;;;1.40;0.70;;;;;;;;;;5076539;28;20460;-51
2022/07/12 12:15:23;;;;;;;1.27;0.57;;;;;;;;;;5067375;28;20542;-52
2022/07/12 12:17:53;;;;;;;1.50;0.80;;;;;;;;;;5073425;28;20456;-54
2022/07/12 12:20:36;;;;;;;1.30;0.70;;;;;;;;;;5047024;28;20422;-52
2022/07/12 12:23:04;;;;;;;1.80;0.77;;;;;;;;;;5078530;28;20439;-54
2022/07/12 12:25:30;;;;;;;1.70;0.80;;;;;;;;;;5045946;28;21169;-52
2022/07/12 12:28:17;;;;;;;2.53;0.87;;;;;;;;;;5077695;28;20444;-51
2022/07/12 12:30:53;;;;;;;1.40;0.90;;;;;;;;;;5060708;28;20485;-52
2022/07/12 12:33:39;;;;;;;2.00;0.70;;;;;;;;;;5074085;28;20432;-52
2022/07/12 12:36:27;;;;;;;1.40;0.73;;;;;;;;;;5057020;28;20435;-53
2022/07/12 12:39:16;;;;;;;1.70;0.60;;;;;;;;;;5077756;28;20949;-51
2022/07/12 12:41:43;;;;;;;3.50;1.10;;;;;;;;;;5051204;28;20443;-54
2022/07/12 12:44:12;;;;;;;1.87;0.80;;;;;;;;;;5077825;28;20433;-53
2022/07/12 12:46:47;;;;;;;1.53;0.73;;;;;;;;;;5046672;28;20272;-54
2022/07/12 12:49:13;;;;;;;1.60;0.60;;;;;;;;;;5073426;28;20467;-53
2022/07/12 12:52:00;;;;;;;2.37;0.93;;;;;;;;;;5053493;28;20459;-53
2022/07/12 12:55:03;;;;;;;1.80;0.80;;;;;;;;;;5073422;28;21215;-54
2022/07/12 12:57:36;;;;;;;1.43;0.80;;;;;;;;;;5070922;28;20499;-50
2022/07/12 13:00:19;;;;;;;1.30;0.70;;;;;;;;;;5070084;28;20514;-52
2022/07/12 13:02:46;;;;;;;1.50;0.77;;;;;;;;;;5074228;28;20463;-52
2022/07/12 13:05:12;;;;;;;1.37;0.60;;;;;;;;;;5065854;28;20437;-52
2022/07/12 13:07:39;;;;;;;1.37;0.60;;;;;;;;;;5061222;28;20440;-54
2022/07/12 13:10:18;;;;;;;1.40;0.90;;;;;;;;;;5062350;28;20472;-53
2022/07/12 13:12:44;;;;;;;1.53;0.87;;;;;;;;;;5074340;28;20535;-51
2022/07/12 13:15:21;;;;;;;2.23;0.70;;;;;;;;;;5060956;28;21342;-52
2022/07/12 13:17:48;;;;;;;1.87;0.70;;;;;;;;;;5076486;28;20445;-52
2022/07/12 13:20:14;;;;;;;4.17;1.57;;;;;;;;;;5074748;28;20495;-51
2022/07/12 13:22:40;;;;;;;1.60;0.77;;;;;;;;;;5053055;28;20555;-54
2022/07/12 13:25:07;;;;;;;2.37;0.70;;;;;;;;;;5050040;28;20465;-54
2022/07/12 13:27:34;;;;;;;1.40;0.70;;;;;;;;;;5076997;28;20433;-53
2022/07/12 13:30:07;;;;;;;1.80;0.70;;;;;;;;;;5033503;28;21033;-57
2022/07/12 13:32:33;;;;;;;1.37;0.80;;;;;;;;;;5099314;28;20438;-53
2022/07/12 13:34:59;;;;;;;1.50;0.93;;;;;;;;;;5060647;28;20829;-52
2022/07/12 13:37:26;;;;;;;2.37;0.87;;;;;;;;;;5082200;28;20440;-53
2022/07/12 13:43:00;;;;;;;1.60;1.03;;;;;;;;;;5075583;28;21084;-53
2022/07/12 13:45:28;;;;;;;1.90;0.70;;;;;;;;;;5079568;28;23409;-52
2022/07/12 13:47:57;;;;;;;2.23;0.83;;;;;;;;;;5076097;28;20693;-52
2022/07/12 13:50:23;;;;;;;1.47;0.67;;;;;;;;;;5045545;28;21274;-52
2022/07/12 13:52:49;;;;;;;1.40;0.70;;;;;;;;;;5076103;28;20858;-52
2022/07/12 13:55:16;;;;;;;1.43;0.83;;;;;;;;;;5058140;28;20953;-50
2022/07/12 13:57:45;;;;;;;1.53;0.80;;;;;;;;;;5083457;28;20432;-52
2022/07/12 14:00:13;;;;;;;1.40;0.70;;;;;;;;;;5052227;28;20465;-52
2022/07/12 14:02:40;;;;;;;1.50;0.80;;;;;;;;;;5077417;28;20430;-52
2022/07/12 14:05:07;;;;;;;2.40;0.60;;;;;;;;;;5055666;28;20480;-54
2022/07/12 14:07:34;;;;;;;1.60;0.80;;;;;;;;;;5086748;28;20897;-50
2022/07/12 14:10:01;;;;;;;1.30;0.60;;;;;;;;;;5073314;28;20468;-52
2022/07/12 14:12:27;;;;;;;1.80;0.70;;;;;;;;;;5085950;28;20413;-52
2022/07/12 14:17:41;;;;;;;2.03;0.97;;;;;;;;;;5074654;28;21455;-53
2022/07/12 14:20:10;;;;;;;1.50;0.80;;;;;;;;;;5062580;28;20709;-51
2022/07/12 14:22:39;;;;;;;1.40;0.63;;;;;;;;;;5073727;28;20491;-52
2022/07/12 14:25:07;;;;;;;1.90;0.70;;;;;;;;;;5073702;28;21016;-55
2022/07/12 14:27:36;;;;;;;5.07;1.13;;;;;;;;;;5073684;28;20444;-52
2022/07/12 14:30:03;;;;;;;2.60;0.80;;;;;;;;;;5070022;28;20602;-51
2022/07/12 14:33:03;;;;;;;2.30;1.00;;;;;;;;;;5070077;28;20437;-53
2022/07/12 14:35:32;;;;;;;2.00;1.30;;;;;;;;;;5066258;28;20444;-52
2022/07/12 14:37:59;;;;;;;1.40;0.70;;;;;;;;;;5047444;28;20472;-51
2022/07/12 14:40:26;;;;;;;1.50;0.80;;;;;;;;;;5076300;28;20440;-53
2022/07/12 14:42:56;;;;;;;1.50;0.90;;;;;;;;;;5075529;28;20436;-52
2022/07/12 14:45:33;;;;;;;4.50;0.90;;;;;;;;;;5044308;28;20778;-57
2022/07/12 14:48:01;;;;;;;3.30;0.90;;;;;;;;;;5086341;28;20432;-53
2022/07/12 14:50:32;;;;;;;2.20;0.73;;;;;;;;;;5035764;28;20572;-52
2022/07/12 14:52:58;;;;;;;2.57;0.87;;;;;;;;;;5047404;28;20470;-52
2022/07/12 14:55:24;;;;;;;1.60;0.90;;;;;;;;;;5070435;28;20440;-52
2022/07/12 14:57:50;;;;;;;1.60;0.80;;;;;;;;;;5070805;28;20436;-53
2022/07/12 15:00:20;;;;;;;1.50;0.80;;;;;;;;;;5075679;28;20191;-52
2022/07/12 15:02:46;;;;;;;1.30;0.67;;;;;;;;;;5053352;28;20189;-55
2022/07/12 15:05:13;;;;;;;2.47;0.80;;;;;;;;;;5075912;28;21477;-51
2022/07/12 15:07:54;;;;;;;1.90;1.10;;;;;;;;;;5061244;28;20437;-57
2022/07/12 15:10:20;;;;;;;1.97;1.03;;;;;;;;;;5071727;28;20564;-53
2022/07/12 15:12:46;;;;;;;1.60;0.80;;;;;;;;;;5058489;28;20572;-53
2022/07/12 15:15:12;;;;;;;1.87;0.90;;;;;;;;;;5070952;28;20498;-53
2022/07/12 15:17:38;;;;;;;2.27;0.87;;;;;;;;;;5048185;28;20449;-53
2022/07/12 15:20:05;;;;;;;2.37;0.90;;;;;;;;;;5042111;28;21069;-53
2022/07/12 15:22:31;;;;;;;1.73;1.00;;;;;;;;;;5074167;28;20274;-52
2022/07/12 15:24:58;;;;;;;1.87;0.90;;;;;;;;;;5050271;28;22541;-53
2022/07/12 15:27:25;;;;;;;2.37;0.90;;;;;;;;;;5066367;28;20971;-54
2022/07/12 15:29:51;;;;;;;1.37;0.77;;;;;;;;;;5055803;28;20480;-50
2022/07/12 15:32:17;;;;;;;1.87;0.87;;;;;;;;;;5070553;28;20444;-51
2022/07/12 15:34:44;;;;;;;1.40;0.80;;;;;;;;;;5060313;28;21270;-51
2022/07/12 15:37:24;;;;;;;2.20;1.10;;;;;;;;;;5068479;28;20998;-53